createdAt,value
2022-12-25T00:00:50.370Z,5.04
2022-12-25T00:01:50.371Z,5.05
2022-12-25T00:02:50.449Z,5.06
2022-12-25T00:03:50.523Z,5.07
2022-12-25T00:04:50.397Z,5.07
2022-12-25T00:05:50.304Z,5.07
2022-12-25T00:06:50.316Z,5.06
2022-12-25T00:07:50.290Z,5.06
2022-12-25T00:08:50.280Z,5.06
2022-12-25T00:09:50.258Z,5.06
2022-12-25T00:10:50.293Z,5.06
2022-12-25T00:11:50.304Z,5.06
2022-12-25T00:12:50.253Z,5.06
2022-12-25T00:13:50.230Z,5.06
2022-12-25T00:14:50.218Z,5.05
2022-12-25T00:15:50.214Z,5.04
2022-12-25T00:16:50.314Z,5.03
2022-12-25T00:17:50.180Z,5.02
2022-12-25T00:18:50.190Z,5.01
2022-12-25T00:19:50.202Z,5.01
2022-12-25T00:20:50.180Z,5.00
2022-12-25T00:21:50.159Z,5.00
2022-12-25T00:22:50.148Z,4.99
2022-12-25T00:23:50.152Z,4.99
2022-12-25T00:24:50.111Z,4.99
2022-12-25T00:25:50.106Z,4.99
2022-12-25T00:26:50.105Z,4.99
2022-12-25T00:27:50.129Z,4.99
2022-12-25T00:28:50.084Z,4.98
2022-12-25T00:29:50.106Z,4.98
2022-12-25T00:30:50.086Z,4.97
2022-12-25T00:31:50.157Z,4.96
2022-12-25T00:32:50.040Z,4.95
2022-12-25T00:33:50.038Z,4.94
2022-12-25T00:34:50.039Z,4.93
2022-12-25T00:35:50.000Z,4.92
2022-12-25T00:36:50.040Z,4.91
2022-12-25T00:37:50.004Z,4.91
2022-12-25T00:38:49.982Z,4.90
2022-12-25T00:39:49.971Z,4.90
2022-12-25T00:40:49.956Z,4.90
2022-12-25T00:41:49.964Z,4.90
2022-12-25T00:42:49.970Z,4.90
2022-12-25T00:43:49.914Z,4.90
2022-12-25T00:44:49.918Z,4.90
2022-12-25T00:45:50.005Z,4.91
2022-12-25T00:46:49.994Z,4.91
2022-12-25T00:47:49.981Z,4.92
2022-12-25T00:48:49.888Z,4.93
2022-12-25T00:49:49.875Z,4.94
2022-12-25T00:50:49.859Z,4.95
2022-12-25T00:51:49.868Z,4.96
2022-12-25T00:52:49.845Z,4.97
2022-12-25T00:53:49.850Z,4.97
2022-12-25T00:54:49.903Z,4.98
2022-12-25T00:55:49.804Z,4.98
2022-12-25T00:56:49.816Z,4.99
2022-12-25T00:57:49.819Z,5.00
2022-12-25T00:58:49.966Z,5.00
2022-12-25T00:59:49.772Z,5.00
2022-12-25T01:00:49.822Z,5.00
2022-12-25T01:01:50.001Z,5.00
2022-12-25T01:02:49.871Z,5.01
2022-12-25T01:03:49.714Z,5.01
2022-12-25T01:04:49.728Z,5.01
2022-12-25T01:05:49.707Z,5.01
2022-12-25T01:06:49.778Z,5.01
2022-12-25T01:07:49.688Z,5.01
2022-12-25T01:08:49.678Z,5.01
2022-12-25T01:09:49.688Z,5.01
2022-12-25T01:10:49.686Z,5.02
2022-12-25T01:11:49.639Z,5.02
2022-12-25T01:12:49.673Z,5.02
2022-12-25T01:13:49.645Z,5.03
2022-12-25T01:14:49.626Z,5.03
2022-12-25T01:15:49.683Z,5.04
2022-12-25T01:16:49.702Z,5.05
2022-12-25T01:17:49.576Z,5.06
2022-12-25T01:18:49.621Z,5.07
2022-12-25T01:19:49.578Z,5.08
2022-12-25T01:20:49.617Z,5.09
2022-12-25T01:21:49.593Z,5.09
2022-12-25T01:22:49.586Z,5.09
2022-12-25T01:23:49.536Z,5.09
2022-12-25T01:24:49.526Z,5.09
2022-12-25T01:25:49.512Z,5.09
2022-12-25T01:26:49.503Z,5.10
2022-12-25T01:27:49.501Z,5.10
2022-12-25T01:28:49.502Z,5.10
2022-12-25T01:29:49.477Z,5.10
2022-12-25T01:30:49.481Z,5.11
2022-12-25T01:31:49.502Z,5.11
2022-12-25T01:32:49.442Z,5.11
2022-12-25T01:33:49.487Z,5.11
2022-12-25T01:34:55.699Z,5.10
2022-12-25T01:35:49.469Z,5.10
2022-12-25T01:36:49.400Z,5.10
2022-12-25T01:37:49.393Z,5.10
2022-12-25T01:38:49.399Z,5.11
2022-12-25T01:39:49.414Z,5.11
2022-12-25T01:40:49.395Z,5.11
2022-12-25T01:41:49.397Z,5.11
2022-12-25T01:42:49.369Z,5.11
2022-12-25T01:43:49.328Z,5.11
2022-12-25T01:44:49.321Z,5.11
2022-12-25T01:45:49.374Z,5.12
2022-12-25T01:46:49.330Z,5.13
2022-12-25T01:47:49.308Z,5.13
2022-12-25T01:48:49.384Z,5.14
2022-12-25T01:49:49.346Z,5.14
2022-12-25T01:50:49.255Z,5.15
2022-12-25T01:51:49.262Z,5.15
2022-12-25T01:52:49.264Z,5.16
2022-12-25T01:53:49.236Z,5.16
2022-12-25T01:54:49.234Z,5.16
2022-12-25T01:55:49.201Z,5.17
2022-12-25T01:56:49.219Z,5.17
2022-12-25T01:57:49.194Z,5.17
2022-12-25T01:58:49.219Z,5.17
2022-12-25T01:59:49.218Z,5.16
2022-12-25T02:02:07.113Z,6.36
2022-12-25T02:03:07.973Z,5.87
2022-12-25T02:04:07.916Z,5.56
2022-12-25T02:05:07.907Z,5.37
2022-12-25T02:06:07.892Z,5.27
2022-12-25T02:07:07.925Z,5.21
2022-12-25T02:08:07.893Z,5.18
2022-12-25T02:09:07.889Z,5.16
2022-12-25T02:10:07.849Z,5.14
2022-12-25T02:11:07.856Z,5.14
2022-12-25T02:12:07.865Z,5.14
2022-12-25T02:13:07.848Z,5.14
2022-12-25T02:14:07.844Z,5.14
2022-12-25T02:15:07.832Z,5.13
2022-12-25T02:16:07.877Z,5.14
2022-12-25T02:17:07.830Z,5.14
2022-12-25T02:18:07.779Z,5.15
2022-12-25T02:19:07.812Z,5.15
2022-12-25T02:20:07.773Z,5.16
2022-12-25T02:21:07.752Z,5.16
2022-12-25T02:22:07.752Z,5.16
2022-12-25T02:23:07.733Z,5.16
2022-12-25T02:24:07.746Z,5.17
2022-12-25T02:25:07.772Z,5.17
2022-12-25T02:26:07.698Z,5.17
2022-12-25T02:27:07.703Z,5.17
2022-12-25T02:28:07.689Z,5.17
2022-12-25T02:29:07.696Z,5.17
2022-12-25T02:30:07.675Z,5.18
2022-12-25T02:31:07.682Z,5.18
2022-12-25T02:32:07.728Z,5.18
2022-12-25T02:33:07.633Z,5.18
2022-12-25T02:34:07.625Z,5.19
2022-12-25T02:35:07.646Z,5.19
2022-12-25T02:36:07.608Z,5.19
2022-12-25T02:37:07.661Z,5.20
2022-12-25T02:38:07.597Z,5.20
2022-12-25T02:39:07.582Z,5.19
2022-12-25T02:40:07.592Z,5.19
2022-12-25T02:41:07.585Z,5.19
2022-12-25T02:42:07.551Z,5.20
2022-12-25T02:43:07.640Z,5.20
2022-12-25T02:44:07.518Z,5.20
2022-12-25T02:45:07.512Z,5.20
2022-12-25T02:46:07.552Z,5.20
2022-12-25T02:47:07.493Z,5.21
2022-12-25T02:48:07.502Z,5.21
2022-12-25T02:49:07.529Z,5.21
2022-12-25T02:50:07.503Z,5.21
2022-12-25T02:51:07.452Z,5.20
2022-12-25T02:52:07.455Z,5.20
2022-12-25T02:53:07.434Z,5.20
2022-12-25T02:54:07.439Z,5.19
2022-12-25T02:55:07.433Z,5.20
2022-12-25T02:56:07.435Z,5.20
2022-12-25T02:57:07.482Z,5.20
2022-12-25T02:58:07.391Z,5.20
2022-12-25T02:59:07.372Z,5.21
2022-12-25T03:00:07.410Z,5.22
2022-12-25T03:01:07.389Z,5.22
2022-12-25T03:02:07.445Z,5.22
2022-12-25T03:03:07.358Z,5.23
2022-12-25T03:04:07.328Z,5.23
2022-12-25T03:05:07.350Z,5.23
2022-12-25T03:06:07.439Z,5.23
2022-12-25T03:07:07.316Z,5.23
2022-12-25T03:08:07.303Z,5.23
2022-12-25T03:09:07.280Z,5.24
2022-12-25T03:10:07.311Z,5.24
2022-12-25T03:11:07.280Z,5.24
2022-12-25T03:12:07.283Z,5.24
2022-12-25T03:13:07.257Z,5.24
2022-12-25T03:14:07.229Z,5.24
2022-12-25T03:15:07.223Z,5.24
2022-12-25T03:16:07.241Z,5.25
2022-12-25T03:17:07.230Z,5.25
2022-12-25T03:18:07.256Z,5.26
2022-12-25T03:19:07.219Z,5.27
2022-12-25T03:20:07.180Z,5.28
2022-12-25T03:21:07.167Z,5.29
2022-12-25T03:22:07.148Z,5.30
2022-12-25T03:23:07.164Z,5.32
2022-12-25T03:24:07.122Z,5.32
2022-12-25T03:25:07.137Z,5.33
2022-12-25T03:26:07.124Z,5.33
2022-12-25T03:27:07.098Z,5.33
2022-12-25T03:28:07.112Z,5.32
2022-12-25T03:29:07.102Z,5.32
2022-12-25T03:30:07.089Z,5.32
2022-12-25T03:31:07.103Z,5.32
2022-12-25T03:32:07.049Z,5.33
2022-12-25T03:33:17.978Z,5.32
2022-12-25T03:34:07.140Z,5.32
2022-12-25T03:35:07.022Z,5.32
2022-12-25T03:36:07.006Z,5.32
2022-12-25T03:37:07.035Z,5.32
2022-12-25T03:38:06.988Z,5.32
2022-12-25T03:39:07.017Z,5.32
2022-12-25T03:40:07.058Z,5.32
2022-12-25T03:41:06.963Z,5.32
2022-12-25T03:42:06.945Z,5.32
2022-12-25T03:43:06.984Z,5.31
2022-12-25T03:44:06.945Z,5.31
2022-12-25T03:45:06.958Z,5.31
2022-12-25T03:46:06.976Z,5.31
2022-12-25T03:47:06.920Z,5.30
2022-12-25T03:48:06.898Z,5.31
2022-12-25T03:49:06.889Z,5.31
2022-12-25T03:50:06.868Z,5.31
2022-12-25T03:51:06.890Z,5.32
2022-12-25T03:52:06.880Z,5.32
2022-12-25T03:53:06.845Z,5.32
2022-12-25T03:54:06.858Z,5.32
2022-12-25T03:55:06.831Z,5.32
2022-12-25T03:56:06.811Z,5.33
2022-12-25T03:57:06.812Z,5.34
2022-12-25T03:58:06.793Z,5.34
2022-12-25T03:59:06.801Z,5.34
2022-12-25T04:00:06.767Z,5.35
2022-12-25T04:01:06.805Z,5.36
2022-12-25T04:02:06.884Z,5.36
2022-12-25T04:03:06.803Z,5.37
2022-12-25T04:04:06.750Z,5.37
2022-12-25T04:05:06.747Z,5.37
2022-12-25T04:06:06.728Z,5.37
2022-12-25T04:07:06.748Z,5.37
2022-12-25T04:08:06.694Z,5.37
2022-12-25T04:09:06.690Z,5.36
2022-12-25T04:10:06.679Z,5.36
2022-12-25T04:11:06.677Z,5.35
2022-12-25T04:12:06.668Z,5.35
2022-12-25T04:13:06.682Z,5.35
2022-12-25T04:14:06.630Z,5.35
2022-12-25T04:15:06.633Z,5.34
2022-12-25T04:16:06.812Z,5.33
2022-12-25T04:17:06.614Z,5.33
2022-12-25T04:18:06.587Z,5.32
2022-12-25T04:19:06.609Z,5.31
2022-12-25T04:20:06.596Z,5.30
2022-12-25T04:21:06.580Z,5.30
2022-12-25T04:22:06.561Z,5.29
2022-12-25T04:23:06.554Z,5.29
2022-12-25T04:24:06.556Z,5.28
2022-12-25T04:25:06.554Z,5.27
2022-12-25T04:26:06.524Z,5.26
2022-12-25T04:27:06.514Z,5.25
2022-12-25T04:28:06.501Z,5.24
2022-12-25T04:29:06.507Z,5.24
2022-12-25T04:30:06.493Z,5.23
2022-12-25T04:31:06.535Z,5.22
2022-12-25T04:32:06.505Z,5.22
2022-12-25T04:33:06.486Z,5.21
2022-12-25T04:34:06.434Z,5.21
2022-12-25T04:35:06.473Z,5.21
2022-12-25T04:36:06.438Z,5.21
2022-12-25T04:37:06.411Z,5.21
2022-12-25T04:38:06.427Z,5.20
2022-12-25T04:39:06.397Z,5.20
2022-12-25T04:40:06.380Z,5.19
2022-12-25T04:41:06.382Z,5.19
2022-12-25T04:42:06.371Z,5.18
2022-12-25T04:43:06.343Z,5.17
2022-12-25T04:44:06.336Z,5.17
2022-12-25T04:45:06.380Z,5.16
2022-12-25T04:46:06.419Z,5.16
2022-12-25T04:47:11.167Z,5.15
2022-12-25T04:48:06.334Z,5.15
2022-12-25T04:49:06.292Z,5.14
2022-12-25T04:50:06.406Z,5.14
2022-12-25T04:51:06.307Z,5.13
2022-12-25T04:52:06.258Z,5.13
2022-12-25T04:53:06.254Z,5.12
2022-12-25T04:54:06.280Z,5.12
2022-12-25T04:55:06.228Z,5.12
2022-12-25T04:56:06.238Z,5.12
2022-12-25T04:57:06.253Z,5.12
2022-12-25T04:58:06.212Z,5.12
2022-12-25T04:59:06.221Z,5.12
2022-12-25T05:00:06.211Z,5.12
2022-12-25T05:01:06.179Z,5.11
2022-12-25T05:02:06.249Z,5.11
2022-12-25T05:03:06.327Z,5.11
2022-12-25T05:04:06.176Z,5.11
2022-12-25T05:05:06.172Z,5.11
2022-12-25T05:06:06.245Z,5.11
2022-12-25T05:07:06.120Z,5.11
2022-12-25T05:08:06.103Z,5.12
2022-12-25T05:09:06.116Z,5.11
2022-12-25T05:10:06.089Z,5.11
2022-12-25T05:11:06.077Z,5.11
2022-12-25T05:12:06.086Z,5.11
2022-12-25T05:13:06.048Z,5.11
2022-12-25T05:14:06.077Z,5.12
2022-12-25T05:15:06.035Z,5.12
2022-12-25T05:16:06.100Z,5.12
2022-12-25T05:17:06.038Z,5.12
2022-12-25T05:18:06.025Z,5.12
2022-12-25T05:19:05.988Z,5.12
2022-12-25T05:20:05.995Z,5.12
2022-12-25T05:21:05.994Z,5.12
2022-12-25T05:22:05.964Z,5.11
2022-12-25T05:23:05.950Z,5.11
2022-12-25T05:24:05.979Z,5.12
2022-12-25T05:25:05.933Z,5.12
2022-12-25T05:26:05.950Z,5.12
2022-12-25T05:27:05.939Z,5.12
2022-12-25T05:28:05.945Z,5.12
2022-12-25T05:29:05.909Z,5.12
2022-12-25T05:30:05.884Z,5.12
2022-12-25T05:31:05.940Z,5.12
2022-12-25T05:32:05.892Z,5.12
2022-12-25T05:33:05.922Z,5.12
2022-12-25T05:34:05.862Z,5.12
2022-12-25T05:35:05.856Z,5.11
2022-12-25T05:36:05.824Z,5.11
2022-12-25T05:37:05.845Z,5.11
2022-12-25T05:38:05.816Z,5.10
2022-12-25T05:39:05.808Z,5.10
2022-12-25T05:40:05.789Z,5.10
2022-12-25T05:41:05.811Z,5.09
2022-12-25T05:42:05.768Z,5.09
2022-12-25T05:43:05.777Z,5.09
2022-12-25T05:44:05.748Z,5.08
2022-12-25T05:45:05.747Z,5.08
2022-12-25T05:46:05.771Z,5.08
2022-12-25T05:47:05.781Z,5.07
2022-12-25T05:48:05.730Z,5.06
2022-12-25T05:49:05.749Z,5.06
2022-12-25T05:50:05.745Z,5.05
2022-12-25T05:51:05.678Z,5.05
2022-12-25T05:52:05.686Z,5.04
2022-12-25T05:53:08.401Z,5.03
2022-12-25T05:54:05.663Z,5.02
2022-12-25T05:55:05.675Z,5.01
2022-12-25T05:56:05.652Z,5.00
2022-12-25T05:57:05.618Z,4.99
2022-12-25T05:58:05.625Z,4.99
2022-12-25T05:59:05.621Z,4.99
2022-12-25T06:00:05.753Z,4.99
2022-12-25T06:01:05.582Z,4.99
2022-12-25T06:02:05.677Z,4.97
2022-12-25T06:03:05.648Z,4.96
2022-12-25T06:04:10.322Z,4.94
2022-12-25T06:05:05.561Z,4.93
2022-12-25T06:06:05.547Z,4.93
2022-12-25T06:07:05.556Z,4.94
2022-12-25T06:08:05.502Z,4.94
2022-12-25T06:09:05.517Z,4.95
2022-12-25T06:10:05.515Z,4.95
2022-12-25T06:11:05.549Z,4.95
2022-12-25T06:12:05.495Z,4.95
2022-12-25T06:13:05.462Z,4.95
2022-12-25T06:14:05.473Z,4.95
2022-12-25T06:15:05.483Z,4.95
2022-12-25T06:16:05.629Z,4.95
2022-12-25T06:17:05.510Z,4.95
2022-12-25T06:18:05.411Z,4.95
2022-12-25T06:19:05.434Z,4.95
2022-12-25T06:20:05.395Z,4.95
2022-12-25T06:21:05.399Z,4.95
2022-12-25T06:22:05.401Z,4.96
2022-12-25T06:23:05.373Z,4.96
2022-12-25T06:24:05.417Z,4.96
2022-12-25T06:25:05.364Z,4.96
2022-12-25T06:26:05.328Z,4.96
2022-12-25T06:27:05.348Z,4.95
2022-12-25T06:28:05.379Z,4.95
2022-12-25T06:29:05.321Z,4.95
2022-12-25T06:30:05.295Z,4.95
2022-12-25T06:31:05.330Z,4.94
2022-12-25T06:32:05.338Z,4.94
2022-12-25T06:33:05.259Z,4.94
2022-12-25T06:34:05.277Z,4.94
2022-12-25T06:35:05.269Z,4.94
2022-12-25T06:36:05.193Z,4.94
2022-12-25T06:37:05.171Z,4.94
2022-12-25T06:38:05.244Z,4.94
2022-12-25T06:39:05.193Z,4.94
2022-12-25T06:40:05.177Z,4.94
2022-12-25T06:41:05.147Z,4.94
2022-12-25T06:42:05.173Z,4.94
2022-12-25T06:43:05.147Z,4.94
2022-12-25T06:44:05.152Z,4.94
2022-12-25T06:45:05.099Z,4.94
2022-12-25T06:46:05.228Z,4.94
2022-12-25T06:47:05.073Z,4.94
2022-12-25T06:48:05.068Z,4.95
2022-12-25T06:49:05.076Z,4.95
2022-12-25T06:50:05.045Z,4.95
2022-12-25T06:51:05.027Z,4.95
2022-12-25T06:52:05.071Z,4.96
2022-12-25T06:53:05.022Z,4.96
2022-12-25T06:54:05.005Z,4.96
2022-12-25T06:55:05.008Z,4.96
2022-12-25T06:56:04.979Z,4.96
2022-12-25T06:57:05.008Z,4.97
2022-12-25T06:58:04.965Z,4.97
2022-12-25T06:59:04.998Z,4.98
2022-12-25T07:00:04.939Z,4.99
2022-12-25T07:01:04.949Z,4.99
2022-12-25T07:02:05.040Z,5.00
2022-12-25T07:03:05.028Z,5.00
2022-12-25T07:04:04.906Z,5.01
2022-12-25T07:05:04.908Z,5.02
2022-12-25T07:06:04.932Z,5.03
2022-12-25T07:07:08.987Z,5.04
2022-12-25T07:08:04.897Z,5.05
2022-12-25T07:09:04.847Z,5.06
2022-12-25T07:10:04.843Z,5.07
2022-12-25T07:11:04.843Z,5.08
2022-12-25T07:12:04.839Z,5.08
2022-12-25T07:13:04.818Z,5.09
2022-12-25T07:14:04.820Z,5.09
2022-12-25T07:15:04.823Z,5.10
2022-12-25T07:16:04.869Z,5.12
2022-12-25T07:17:04.783Z,5.12
2022-12-25T07:18:04.796Z,5.13
2022-12-25T07:19:04.751Z,5.14
2022-12-25T07:20:04.798Z,5.15
2022-12-25T07:21:04.771Z,5.16
2022-12-25T07:22:04.719Z,5.16
2022-12-25T07:23:04.729Z,5.17
2022-12-25T07:24:05.673Z,5.17
2022-12-25T07:25:04.699Z,5.17
2022-12-25T07:26:04.703Z,5.18
2022-12-25T07:27:04.674Z,5.18
2022-12-25T07:28:04.670Z,5.19
2022-12-25T07:29:04.677Z,5.19
2022-12-25T07:30:04.668Z,5.20
2022-12-25T07:31:04.646Z,5.21
2022-12-25T07:32:04.704Z,5.22
2022-12-25T07:33:04.626Z,5.22
2022-12-25T07:34:04.621Z,5.22
2022-12-25T07:35:04.639Z,5.22
2022-12-25T07:36:04.583Z,5.22
2022-12-25T07:37:04.653Z,5.22
2022-12-25T07:38:04.576Z,5.22
2022-12-25T07:39:04.561Z,5.22
2022-12-25T07:40:04.633Z,5.23
2022-12-25T07:41:04.551Z,5.24
2022-12-25T07:42:04.544Z,5.25
2022-12-25T07:43:04.532Z,5.26
2022-12-25T07:44:04.515Z,5.28
2022-12-25T07:45:04.552Z,5.29
2022-12-25T07:46:04.559Z,5.32
2022-12-25T07:47:04.494Z,5.36
2022-12-25T07:48:05.824Z,5.38
2022-12-25T07:49:04.463Z,5.40
2022-12-25T07:50:04.486Z,5.42
2022-12-25T07:51:04.475Z,5.43
2022-12-25T07:52:04.439Z,5.45
2022-12-25T07:53:04.429Z,5.47
2022-12-25T07:54:04.432Z,5.49
2022-12-25T07:55:04.397Z,5.52
2022-12-25T07:56:04.396Z,5.55
2022-12-25T07:57:04.425Z,5.57
2022-12-25T07:58:04.385Z,5.60
2022-12-25T07:59:04.360Z,5.62
2022-12-25T08:00:04.357Z,5.64
2022-12-25T08:01:04.517Z,5.66
2022-12-25T08:02:04.613Z,5.68
2022-12-25T08:03:04.691Z,5.69
2022-12-25T08:04:04.351Z,5.70
2022-12-25T08:05:04.317Z,5.71
2022-12-25T08:06:04.310Z,5.73
2022-12-25T08:07:04.312Z,5.75
2022-12-25T08:08:04.281Z,5.77
2022-12-25T08:09:04.283Z,5.78
2022-12-25T08:10:04.277Z,5.78
2022-12-25T08:11:04.248Z,5.79
2022-12-25T08:12:04.245Z,5.79
2022-12-25T08:13:09.001Z,5.80
2022-12-25T08:14:04.236Z,5.81
2022-12-25T08:15:04.220Z,5.82
2022-12-25T08:16:04.205Z,5.84
2022-12-25T08:17:04.455Z,5.87
2022-12-25T08:18:04.177Z,5.90
2022-12-25T08:19:04.194Z,5.95
2022-12-25T08:20:04.166Z,6.00
2022-12-25T08:21:04.145Z,6.04
2022-12-25T08:22:04.205Z,6.07
2022-12-25T08:23:04.115Z,6.10
2022-12-25T08:24:04.119Z,6.12
2022-12-25T08:25:04.117Z,6.14
2022-12-25T08:26:05.565Z,6.15
2022-12-25T08:27:04.105Z,6.15
2022-12-25T08:28:04.071Z,6.16
2022-12-25T08:29:04.073Z,6.17
2022-12-25T08:30:04.050Z,6.18
2022-12-25T08:31:04.176Z,6.18
2022-12-25T08:32:04.164Z,6.17
2022-12-25T08:33:04.098Z,6.16
2022-12-25T08:34:04.040Z,6.14
2022-12-25T08:35:04.027Z,6.12
2022-12-25T08:36:03.999Z,6.12
2022-12-25T08:37:03.982Z,6.13
2022-12-25T08:38:04.056Z,6.15
2022-12-25T08:39:04.343Z,6.18
2022-12-25T08:40:03.972Z,6.21
2022-12-25T08:41:03.945Z,6.24
2022-12-25T08:42:03.929Z,6.26
2022-12-25T08:43:03.937Z,6.29
2022-12-25T08:44:03.961Z,6.31
2022-12-25T08:45:03.923Z,6.34
2022-12-25T08:46:03.963Z,6.37
2022-12-25T08:47:03.883Z,6.40
2022-12-25T08:48:03.870Z,6.44
2022-12-25T08:49:03.879Z,6.50
2022-12-25T08:50:03.893Z,6.58
2022-12-25T08:51:03.841Z,6.66
2022-12-25T08:52:03.845Z,6.73
2022-12-25T08:53:03.831Z,6.78
2022-12-25T08:54:03.814Z,6.82
2022-12-25T08:55:03.813Z,6.86
2022-12-25T08:56:03.802Z,6.92
2022-12-25T08:57:03.801Z,6.97
2022-12-25T08:58:03.777Z,7.01
2022-12-25T08:59:03.772Z,7.06
2022-12-25T09:00:04.001Z,7.10
2022-12-25T09:01:03.763Z,7.14
2022-12-25T09:02:03.906Z,7.15
2022-12-25T09:03:03.827Z,7.15
2022-12-25T09:04:03.718Z,7.16
2022-12-25T09:05:03.715Z,7.19
2022-12-25T09:06:03.721Z,7.21
2022-12-25T09:07:03.731Z,7.21
2022-12-25T09:08:03.680Z,7.21
2022-12-25T09:09:03.685Z,7.22
2022-12-25T09:10:03.662Z,7.24
2022-12-25T09:11:03.646Z,7.28
2022-12-25T09:12:03.636Z,7.33
2022-12-25T09:13:03.663Z,7.36
2022-12-25T09:14:03.700Z,7.37
2022-12-25T09:15:03.626Z,7.37
2022-12-25T09:16:03.620Z,7.40
2022-12-25T09:17:03.604Z,7.44
2022-12-25T09:18:03.594Z,7.48
2022-12-25T09:19:03.584Z,7.52
2022-12-25T09:20:03.555Z,7.55
2022-12-25T09:21:03.573Z,7.58
2022-12-25T09:22:03.540Z,7.60
2022-12-25T09:23:07.246Z,7.61
2022-12-25T09:24:03.538Z,7.62
2022-12-25T09:25:03.527Z,7.63
2022-12-25T09:26:03.504Z,7.62
2022-12-25T09:27:03.500Z,7.61
2022-12-25T09:28:03.502Z,7.60
2022-12-25T09:29:03.483Z,7.58
2022-12-25T09:30:03.448Z,7.58
2022-12-25T09:31:03.522Z,7.59
2022-12-25T09:32:03.433Z,7.61
2022-12-25T09:33:03.464Z,7.62
2022-12-25T09:34:03.436Z,7.63
2022-12-25T09:35:03.434Z,7.65
2022-12-25T09:36:03.397Z,7.66
2022-12-25T09:37:03.409Z,7.67
2022-12-25T09:38:03.416Z,7.68
2022-12-25T09:39:03.391Z,7.70
2022-12-25T09:40:03.400Z,7.74
2022-12-25T09:41:03.345Z,7.77
2022-12-25T09:42:03.336Z,7.80
2022-12-25T09:43:03.342Z,7.83
2022-12-25T09:44:03.424Z,7.85
2022-12-25T09:45:03.325Z,7.87
2022-12-25T09:46:03.457Z,7.87
2022-12-25T09:47:03.328Z,7.88
2022-12-25T09:48:03.296Z,7.88
2022-12-25T09:49:03.273Z,7.87
2022-12-25T09:50:03.278Z,7.88
2022-12-25T09:51:03.263Z,7.89
2022-12-25T09:52:03.285Z,7.90
2022-12-25T09:53:03.240Z,7.92
2022-12-25T09:54:03.223Z,7.94
2022-12-25T09:55:03.237Z,7.97
2022-12-25T09:56:03.209Z,7.98
2022-12-25T09:57:03.227Z,7.98
2022-12-25T09:58:03.179Z,8.00
2022-12-25T09:59:03.196Z,8.00
2022-12-25T10:00:03.153Z,8.00
2022-12-25T10:01:03.163Z,7.99
2022-12-25T10:02:03.215Z,7.98
2022-12-25T10:03:03.362Z,7.97
2022-12-25T10:04:03.173Z,7.94
2022-12-25T10:05:03.127Z,7.92
2022-12-25T10:06:03.101Z,7.89
2022-12-25T10:07:03.097Z,7.87
2022-12-25T10:08:03.110Z,7.87
2022-12-25T10:09:03.084Z,7.88
2022-12-25T10:10:03.078Z,7.90
2022-12-25T10:11:03.063Z,7.92
2022-12-25T10:12:03.040Z,7.93
2022-12-25T10:13:03.036Z,7.93
2022-12-25T10:14:03.075Z,7.93
2022-12-25T10:15:03.058Z,7.91
2022-12-25T10:16:03.047Z,7.90
2022-12-25T10:17:03.020Z,7.92
2022-12-25T10:18:02.984Z,7.97
2022-12-25T10:19:02.973Z,8.00
2022-12-25T10:20:03.003Z,8.00
2022-12-25T10:21:05.703Z,8.01
2022-12-25T10:22:02.956Z,8.03
2022-12-25T10:23:02.988Z,8.06
2022-12-25T10:24:02.955Z,8.09
2022-12-25T10:25:02.922Z,8.10
2022-12-25T10:26:02.896Z,8.12
2022-12-25T10:27:02.921Z,8.15
2022-12-25T10:28:02.897Z,8.17
2022-12-25T10:29:02.905Z,8.22
2022-12-25T10:30:02.857Z,8.29
2022-12-25T10:31:02.958Z,8.36
2022-12-25T10:32:02.852Z,8.42
2022-12-25T10:33:02.872Z,8.48
2022-12-25T10:34:02.884Z,8.51
2022-12-25T10:35:02.841Z,8.53
2022-12-25T10:36:02.794Z,8.55
2022-12-25T10:37:02.849Z,8.54
2022-12-25T10:38:02.804Z,8.53
2022-12-25T10:39:02.794Z,8.51
2022-12-25T10:40:02.773Z,8.49
2022-12-25T10:41:02.780Z,8.48
2022-12-25T10:42:02.738Z,8.46
2022-12-25T10:43:02.737Z,8.41
2022-12-25T10:44:02.739Z,8.39
2022-12-25T10:45:02.749Z,8.38
2022-12-25T10:46:02.796Z,8.39
2022-12-25T10:47:02.713Z,8.40
2022-12-25T10:48:07.069Z,8.42
2022-12-25T10:49:02.679Z,8.45
2022-12-25T10:50:02.675Z,8.46
2022-12-25T10:51:02.652Z,8.48
2022-12-25T10:52:02.673Z,8.52
2022-12-25T10:53:02.661Z,8.59
2022-12-25T10:54:02.642Z,8.63
2022-12-25T10:55:02.663Z,8.66
2022-12-25T10:56:02.647Z,8.67
2022-12-25T10:57:02.672Z,8.68
2022-12-25T10:58:02.591Z,8.70
2022-12-25T10:59:02.604Z,8.74
2022-12-25T11:00:02.565Z,8.78
2022-12-25T11:01:02.561Z,8.83
2022-12-25T11:02:02.626Z,8.87
2022-12-25T11:03:02.796Z,8.92
2022-12-25T11:04:02.614Z,8.97
2022-12-25T11:05:02.590Z,9.03
2022-12-25T11:06:02.501Z,9.08
2022-12-25T11:07:02.506Z,9.11
2022-12-25T11:08:02.487Z,9.13
2022-12-25T11:09:02.495Z,9.12
2022-12-25T11:10:05.637Z,9.08
2022-12-25T11:11:02.511Z,9.04
2022-12-25T11:12:02.447Z,9.02
2022-12-25T11:13:02.591Z,9.05
2022-12-25T11:14:02.440Z,9.09
2022-12-25T11:15:02.404Z,9.13
2022-12-25T11:16:02.452Z,9.16
2022-12-25T11:17:02.417Z,9.19
2022-12-25T11:18:02.465Z,9.20
2022-12-25T11:19:02.374Z,9.21
2022-12-25T11:20:02.399Z,9.20
2022-12-25T11:21:02.353Z,9.21
2022-12-25T11:22:02.346Z,9.21
2022-12-25T11:23:02.382Z,9.20
2022-12-25T11:24:02.339Z,9.19
2022-12-25T11:25:02.323Z,9.20
2022-12-25T11:26:02.355Z,9.23
2022-12-25T11:27:02.320Z,9.25
2022-12-25T11:28:02.304Z,9.27
2022-12-25T11:29:02.349Z,9.30
2022-12-25T11:30:02.313Z,9.34
2022-12-25T11:31:02.331Z,9.40
2022-12-25T11:32:02.237Z,9.44
2022-12-25T11:33:02.246Z,9.47
2022-12-25T11:34:02.223Z,9.52
2022-12-25T11:35:02.261Z,9.57
2022-12-25T11:36:02.201Z,9.59
2022-12-25T11:37:02.195Z,9.58
2022-12-25T11:38:02.200Z,9.58
2022-12-25T11:39:02.176Z,9.64
2022-12-25T11:40:02.187Z,9.72
2022-12-25T11:41:02.165Z,9.82
2022-12-25T11:42:02.172Z,9.90
2022-12-25T11:43:07.650Z,9.99
2022-12-25T11:44:02.138Z,10.03
2022-12-25T11:45:02.120Z,10.03
2022-12-25T11:46:02.114Z,10.03
2022-12-25T11:47:02.225Z,10.03
2022-12-25T11:48:02.089Z,10.04
2022-12-25T11:49:02.099Z,10.03
2022-12-25T11:50:02.073Z,9.97
2022-12-25T11:51:02.080Z,9.91
2022-12-25T11:52:02.054Z,9.86
2022-12-25T11:53:02.045Z,9.84
2022-12-25T11:54:02.034Z,9.86
2022-12-25T11:55:02.026Z,9.90
2022-12-25T11:56:02.031Z,9.96
2022-12-25T11:57:01.988Z,9.99
2022-12-25T11:58:02.013Z,9.97
2022-12-25T11:59:02.060Z,9.95
2022-12-25T12:00:01.977Z,9.97
2022-12-25T12:01:01.947Z,10.07
2022-12-25T12:02:02.092Z,10.19
2022-12-25T12:03:02.079Z,10.25
2022-12-25T12:04:02.036Z,10.30
2022-12-25T12:05:01.968Z,10.33
2022-12-25T12:06:01.888Z,10.33
2022-12-25T12:07:01.880Z,10.33
2022-12-25T12:08:01.895Z,10.40
2022-12-25T12:09:01.859Z,10.51
2022-12-25T12:10:01.892Z,10.61
2022-12-25T12:11:01.931Z,10.65
2022-12-25T12:12:01.869Z,10.64
2022-12-25T12:13:01.852Z,10.66
2022-12-25T12:14:01.832Z,10.66
2022-12-25T12:15:01.827Z,10.67
2022-12-25T12:16:01.897Z,10.73
2022-12-25T12:17:01.792Z,10.75
2022-12-25T12:18:01.798Z,10.73
2022-12-25T12:19:01.765Z,10.71
2022-12-25T12:20:01.761Z,10.64
2022-12-25T12:21:01.825Z,10.54
2022-12-25T12:22:01.748Z,10.49
2022-12-25T12:23:01.740Z,10.55
2022-12-25T12:24:01.714Z,10.67
2022-12-25T12:25:02.342Z,10.81
2022-12-25T12:26:01.870Z,10.94
2022-12-25T12:27:01.727Z,11.04
2022-12-25T12:28:05.575Z,11.05
2022-12-25T12:29:01.697Z,11.00
2022-12-25T12:30:01.696Z,10.95
2022-12-25T12:31:01.652Z,10.94
2022-12-25T12:32:01.693Z,10.92
2022-12-25T12:33:01.632Z,10.92
2022-12-25T12:34:02.336Z,10.98
2022-12-25T12:35:01.622Z,11.10
2022-12-25T12:36:01.617Z,11.28
2022-12-25T12:37:01.604Z,11.54
2022-12-25T12:38:01.567Z,11.81
2022-12-25T12:39:01.572Z,12.03
2022-12-25T12:40:01.569Z,12.23
2022-12-25T12:41:01.547Z,12.42
2022-12-25T12:42:01.554Z,12.58
2022-12-25T12:43:01.526Z,12.71
2022-12-25T12:44:01.518Z,12.80
2022-12-25T12:45:01.522Z,12.83
2022-12-25T12:46:01.585Z,12.76
2022-12-25T12:47:01.481Z,12.55
2022-12-25T12:48:01.469Z,12.37
2022-12-25T12:49:01.460Z,12.37
2022-12-25T12:50:01.455Z,12.54
2022-12-25T12:51:01.439Z,12.81
2022-12-25T12:52:01.423Z,13.08
2022-12-25T12:53:01.459Z,13.28
2022-12-25T12:54:01.400Z,13.40
2022-12-25T12:55:01.411Z,13.51
2022-12-25T12:56:01.389Z,13.61
2022-12-25T12:57:01.376Z,13.70
2022-12-25T12:58:01.364Z,13.76
2022-12-25T12:59:01.377Z,13.77
2022-12-25T13:00:08.594Z,13.84
2022-12-25T13:01:01.383Z,14.02
2022-12-25T13:02:01.581Z,14.26
2022-12-25T13:03:01.513Z,14.53
2022-12-25T13:04:01.417Z,14.79
2022-12-25T13:05:01.325Z,14.88
2022-12-25T13:06:01.287Z,14.86
2022-12-25T13:07:01.332Z,14.87
2022-12-25T13:08:01.291Z,14.93
2022-12-25T13:09:01.292Z,14.82
2022-12-25T13:10:01.281Z,14.57
2022-12-25T13:11:01.269Z,14.41
2022-12-25T13:12:01.221Z,14.37
2022-12-25T13:13:01.280Z,14.40
2022-12-25T13:14:01.219Z,14.48
2022-12-25T13:15:01.219Z,14.62
2022-12-25T13:16:01.242Z,14.81
2022-12-25T13:17:01.288Z,14.86